sensor_id;sensor_type;location;lat;lon;timestamp;pressure;altitude;pressure_sealevel;temperature;humidity
48404;BME280;34202;52.536;6.042;2022-11-03T00:04:38;101462.30;;;11.40;81.74
48404;BME280;34202;52.536;6.042;2022-11-03T00:09:38;101461.23;;;11.39;81.84
48404;BME280;34202;52.536;6.042;2022-11-03T00:14:38;101465.23;;;11.39;81.83
48404;BME280;34202;52.536;6.042;2022-11-03T00:19:39;101464.33;;;11.37;81.93
48404;BME280;34202;52.536;6.042;2022-11-03T00:24:39;101455.27;;;11.37;81.80
48404;BME280;34202;52.536;6.042;2022-11-03T00:29:39;101448.80;;;11.35;81.84
48404;BME280;34202;52.536;6.042;2022-11-03T00:34:39;101439.70;;;11.32;81.64
48404;BME280;34202;52.536;6.042;2022-11-03T00:39:40;101420.30;;;11.29;81.72
48404;BME280;34202;52.536;6.042;2022-11-03T00:44:40;101415.73;;;11.25;81.82
48404;BME280;34202;52.536;6.042;2022-11-03T00:49:40;101408.71;;;11.21;81.95
48404;BME280;34202;52.536;6.042;2022-11-03T00:54:40;101402.90;;;11.16;82.01
48404;BME280;34202;52.536;6.042;2022-11-03T00:59:41;101391.16;;;11.10;82.05
48404;BME280;34202;52.536;6.042;2022-11-03T01:04:41;101380.28;;;11.05;82.28
48404;BME280;34202;52.536;6.042;2022-11-03T01:10:00;101365.38;;;10.98;82.38
48404;BME280;34202;52.536;6.042;2022-11-03T01:15:00;101357.11;;;10.92;82.50
48404;BME280;34202;52.536;6.042;2022-11-03T01:20:01;101357.89;;;10.85;82.90
48404;BME280;34202;52.536;6.042;2022-11-03T01:25:01;101359.89;;;10.79;83.17
48404;BME280;34202;52.536;6.042;2022-11-03T01:30:01;101354.95;;;10.73;83.45
48404;BME280;34202;52.536;6.042;2022-11-03T01:35:02;101353.66;;;10.70;83.72
48404;BME280;34202;52.536;6.042;2022-11-03T01:40:02;101343.86;;;10.66;84.10
48404;BME280;34202;52.536;6.042;2022-11-03T01:45:03;101344.69;;;10.62;84.35
48404;BME280;34202;52.536;6.042;2022-11-03T01:55:08;101323.39;;;10.58;84.80
48404;BME280;34202;52.536;6.042;2022-11-03T02:00:10;101322.81;;;10.56;85.12
48404;BME280;34202;52.536;6.042;2022-11-03T02:05:12;101306.46;;;10.55;85.33
48404;BME280;34202;52.536;6.042;2022-11-03T02:12:48;101292.03;;;10.57;85.60
48404;BME280;34202;52.536;6.042;2022-11-03T02:17:50;101287.31;;;10.54;85.80
48404;BME280;34202;52.536;6.042;2022-11-03T02:23:08;101287.11;;;10.52;86.00
48404;BME280;34202;52.536;6.042;2022-11-03T02:28:14;101279.77;;;10.50;86.26
48404;BME280;34202;52.536;6.042;2022-11-03T02:38:59;101275.69;;;10.45;86.62
48404;BME280;34202;52.536;6.042;2022-11-03T02:44:03;101270.23;;;10.40;86.83
48404;BME280;34202;52.536;6.042;2022-11-03T02:49:04;101268.27;;;10.37;86.93
48404;BME280;34202;52.536;6.042;2022-11-03T02:59:20;101242.42;;;10.31;87.40
48404;BME280;34202;52.536;6.042;2022-11-03T03:04:30;101235.07;;;10.29;87.54
48404;BME280;34202;52.536;6.042;2022-11-03T03:09:43;101227.20;;;10.26;87.73
48404;BME280;34202;52.536;6.042;2022-11-03T03:14:46;101225.77;;;10.24;87.89
48404;BME280;34202;52.536;6.042;2022-11-03T03:19:55;101222.45;;;10.22;88.09
48404;BME280;34202;52.536;6.042;2022-11-03T03:30:14;101226.20;;;10.18;88.31
48404;BME280;34202;52.536;6.042;2022-11-03T03:35:24;101220.80;;;10.16;88.53
48404;BME280;34202;52.536;6.042;2022-11-03T03:40:35;101216.77;;;10.14;88.60
48404;BME280;34202;52.536;6.042;2022-11-03T03:45:37;101208.01;;;10.10;88.74
48404;BME280;34202;52.536;6.042;2022-11-03T03:50:41;101199.98;;;10.08;88.70
48404;BME280;34202;52.536;6.042;2022-11-03T03:55:49;101190.20;;;10.04;88.83
48404;BME280;34202;52.536;6.042;2022-11-03T04:00:50;101182.15;;;10.01;89.00
48404;BME280;34202;52.536;6.042;2022-11-03T04:05:53;101170.14;;;10.00;89.14
48404;BME280;34202;52.536;6.042;2022-11-03T04:10:53;101158.98;;;9.99;89.30
48404;BME280;34202;52.536;6.042;2022-11-03T04:16:12;101151.33;;;9.98;89.72
48404;BME280;34202;52.536;6.042;2022-11-03T04:21:31;101143.69;;;9.99;89.87
48404;BME280;34202;52.536;6.042;2022-11-03T04:26:51;101131.52;;;10.00;90.14
48404;BME280;34202;52.536;6.042;2022-11-03T04:31:51;101126.88;;;10.03;90.38
48404;BME280;34202;52.536;6.042;2022-11-03T04:36:51;101122.40;;;10.07;90.50
48404;BME280;34202;52.536;6.042;2022-11-03T04:41:52;101123.31;;;10.10;90.68
48404;BME280;34202;52.536;6.042;2022-11-03T04:46:52;101119.71;;;10.13;90.68
48404;BME280;34202;52.536;6.042;2022-11-03T04:51:53;101121.30;;;10.15;90.79
48404;BME280;34202;52.536;6.042;2022-11-03T04:56:54;101119.40;;;10.17;90.77
48404;BME280;34202;52.536;6.042;2022-11-03T05:01:55;101110.90;;;10.19;90.86
48404;BME280;34202;52.536;6.042;2022-11-03T05:06:55;101112.30;;;10.20;90.89
48404;BME280;34202;52.536;6.042;2022-11-03T05:11:56;101105.54;;;10.21;90.94
48404;BME280;34202;52.536;6.042;2022-11-03T05:16:57;101104.51;;;10.22;91.03
48404;BME280;34202;52.536;6.042;2022-11-03T05:21:59;101098.95;;;10.22;90.98
48404;BME280;34202;52.536;6.042;2022-11-03T05:27:02;101087.11;;;10.21;91.06
48404;BME280;34202;52.536;6.042;2022-11-03T05:32:02;101079.64;;;10.22;91.10
48404;BME280;34202;52.536;6.042;2022-11-03T05:47:25;101072.84;;;10.21;91.16
48404;BME280;34202;52.536;6.042;2022-11-03T05:52:27;101066.40;;;10.20;91.31
48404;BME280;34202;52.536;6.042;2022-11-03T05:57:28;101057.36;;;10.20;91.31
48404;BME280;34202;52.536;6.042;2022-11-03T06:02:37;101040.32;;;10.20;91.52
48404;BME280;34202;52.536;6.042;2022-11-03T06:07:38;101041.88;;;10.21;91.58
48404;BME280;34202;52.536;6.042;2022-11-03T06:12:38;101035.64;;;10.22;91.70
48404;BME280;34202;52.536;6.042;2022-11-03T06:17:38;101030.62;;;10.24;91.78
48404;BME280;34202;52.536;6.042;2022-11-03T06:22:39;101022.98;;;10.27;91.73
48404;BME280;34202;52.536;6.042;2022-11-03T06:27:39;101020.56;;;10.28;91.72
48404;BME280;34202;52.536;6.042;2022-11-03T06:32:39;101018.14;;;10.29;91.82
48404;BME280;34202;52.536;6.042;2022-11-03T06:37:41;101018.85;;;10.30;91.83
48404;BME280;34202;52.536;6.042;2022-11-03T06:42:42;101019.19;;;10.30;91.89
48404;BME280;34202;52.536;6.042;2022-11-03T06:47:42;101006.02;;;10.32;91.97
48404;BME280;34202;52.536;6.042;2022-11-03T06:52:44;101003.79;;;10.33;92.09
48404;BME280;34202;52.536;6.042;2022-11-03T06:57:52;100999.10;;;10.35;92.22
48404;BME280;34202;52.536;6.042;2022-11-03T07:03:17;100995.83;;;10.39;92.38
48404;BME280;34202;52.536;6.042;2022-11-03T07:08:21;100989.63;;;10.44;92.38
48404;BME280;34202;52.536;6.042;2022-11-03T07:13:23;100985.99;;;10.47;92.40
48404;BME280;34202;52.536;6.042;2022-11-03T07:18:34;100981.33;;;10.51;92.57
48404;BME280;34202;52.536;6.042;2022-11-03T07:23:39;100974.41;;;10.56;92.65
48404;BME280;34202;52.536;6.042;2022-11-03T07:28:39;100972.21;;;10.61;92.75
48404;BME280;34202;52.536;6.042;2022-11-03T07:33:40;100969.63;;;10.66;92.78
48404;BME280;34202;52.536;6.042;2022-11-03T07:38:42;100966.70;;;10.71;92.93
48404;BME280;34202;52.536;6.042;2022-11-03T07:43:48;100960.64;;;10.76;92.91
48404;BME280;34202;52.536;6.042;2022-11-03T07:48:58;100958.45;;;10.83;93.20
48404;BME280;34202;52.536;6.042;2022-11-03T08:04:32;100944.14;;;11.02;93.20
48404;BME280;34202;52.536;6.042;2022-11-03T08:09:33;100938.27;;;11.11;93.32
48404;BME280;34202;52.536;6.042;2022-11-03T08:14:33;100938.64;;;11.17;93.25
48404;BME280;34202;52.536;6.042;2022-11-03T08:19:34;100936.77;;;11.23;93.19
48404;BME280;34202;52.536;6.042;2022-11-03T08:24:35;100931.06;;;11.31;93.25
48404;BME280;34202;52.536;6.042;2022-11-03T08:29:35;100924.65;;;11.37;93.22
48404;BME280;34202;52.536;6.042;2022-11-03T08:34:35;100918.23;;;11.45;93.23
48404;BME280;34202;52.536;6.042;2022-11-03T08:39:36;100912.85;;;11.52;93.27
48404;BME280;34202;52.536;6.042;2022-11-03T08:44:36;100905.20;;;11.58;93.22
48404;BME280;34202;52.536;6.042;2022-11-03T08:49:36;100906.45;;;11.65;93.19
48404;BME280;34202;52.536;6.042;2022-11-03T08:54:37;100903.86;;;11.71;93.18
48404;BME280;34202;52.536;6.042;2022-11-03T08:59:37;100893.41;;;11.77;93.18
48404;BME280;34202;52.536;6.042;2022-11-03T09:04:37;100889.95;;;11.84;93.19
48404;BME280;34202;52.536;6.042;2022-11-03T09:09:38;100882.83;;;11.91;93.06
48404;BME280;34202;52.536;6.042;2022-11-03T09:14:38;100872.21;;;11.97;93.10
48404;BME280;34202;52.536;6.042;2022-11-03T09:19:38;100863.16;;;12.03;92.92
48404;BME280;34202;52.536;6.042;2022-11-03T09:24:39;100846.41;;;12.10;92.84
48404;BME280;34202;52.536;6.042;2022-11-03T09:29:39;100832.11;;;12.18;92.75
48404;BME280;34202;52.536;6.042;2022-11-03T09:34:40;100818.52;;;12.25;92.63
48404;BME280;34202;52.536;6.042;2022-11-03T09:39:41;100804.70;;;12.32;92.64
48404;BME280;34202;52.536;6.042;2022-11-03T09:44:41;100798.76;;;12.43;92.68
48404;BME280;34202;52.536;6.042;2022-11-03T09:49:42;100786.67;;;12.57;92.80
48404;BME280;34202;52.536;6.042;2022-11-03T09:54:42;100776.35;;;12.73;92.81
48404;BME280;34202;52.536;6.042;2022-11-03T09:59:46;100761.09;;;12.88;92.53
48404;BME280;34202;52.536;6.042;2022-11-03T10:04:47;100753.52;;;13.00;92.15
48404;BME280;34202;52.536;6.042;2022-11-03T10:09:50;100735.49;;;13.09;91.72
48404;BME280;34202;52.536;6.042;2022-11-03T10:14:53;100723.39;;;13.17;91.12
48404;BME280;34202;52.536;6.042;2022-11-03T10:19:55;100715.69;;;13.22;90.64
48404;BME280;34202;52.536;6.042;2022-11-03T10:30:27;100688.72;;;13.33;90.15
48404;BME280;34202;52.536;6.042;2022-11-03T10:35:32;100679.21;;;13.42;89.91
48404;BME280;34202;52.536;6.042;2022-11-03T10:40:35;100677.71;;;13.56;89.99
48404;BME280;34202;52.536;6.042;2022-11-03T10:45:35;100667.95;;;13.71;89.75
48404;BME280;34202;52.536;6.042;2022-11-03T10:50:38;100665.55;;;13.85;89.46
48404;BME280;34202;52.536;6.042;2022-11-03T10:55:39;100650.77;;;13.94;88.89
48404;BME280;34202;52.536;6.042;2022-11-03T11:00:40;100650.02;;;14.00;88.20
48404;BME280;34202;52.536;6.042;2022-11-03T11:05:45;100641.73;;;14.06;87.68
48404;BME280;34202;52.536;6.042;2022-11-03T11:10:46;100630.65;;;14.10;87.36
48404;BME280;34202;52.536;6.042;2022-11-03T11:20:51;100603.95;;;14.19;86.49
48404;BME280;34202;52.536;6.042;2022-11-03T11:26:05;100599.55;;;14.21;85.99
48404;BME280;34202;52.536;6.042;2022-11-03T11:36:23;100583.60;;;14.23;85.17
48404;BME280;34202;52.536;6.042;2022-11-03T11:47:31;100573.45;;;14.24;84.65
48404;BME280;34202;52.536;6.042;2022-11-03T11:57:53;100553.27;;;14.28;84.37
48404;BME280;34202;52.536;6.042;2022-11-03T12:02:54;100537.82;;;14.32;84.19
48404;BME280;34202;52.536;6.042;2022-11-03T12:07:56;100535.30;;;14.37;84.00
48404;BME280;34202;52.536;6.042;2022-11-03T12:12:58;100528.55;;;14.43;83.87
48404;BME280;34202;52.536;6.042;2022-11-03T12:17:58;100519.33;;;14.52;83.71
48404;BME280;34202;52.536;6.042;2022-11-03T12:22:59;100509.59;;;14.61;83.57
48404;BME280;34202;52.536;6.042;2022-11-03T12:27:59;100500.88;;;14.69;83.02
48404;BME280;34202;52.536;6.042;2022-11-03T12:32:59;100484.85;;;14.75;82.72
48404;BME280;34202;52.536;6.042;2022-11-03T12:38:00;100477.22;;;14.80;82.36
48404;BME280;34202;52.536;6.042;2022-11-03T12:43:00;100469.99;;;14.83;82.00
48404;BME280;34202;52.536;6.042;2022-11-03T12:48:00;100450.89;;;14.84;81.71
48404;BME280;34202;52.536;6.042;2022-11-03T12:53:01;100436.13;;;14.86;81.70
48404;BME280;34202;52.536;6.042;2022-11-03T12:58:01;100430.77;;;14.91;81.47
48404;BME280;34202;52.536;6.042;2022-11-03T13:03:02;100424.06;;;14.95;81.56
48404;BME280;34202;52.536;6.042;2022-11-03T13:08:02;100416.27;;;15.00;81.32
48404;BME280;34202;52.536;6.042;2022-11-03T13:13:02;100402.13;;;15.06;81.13
48404;BME280;34202;52.536;6.042;2022-11-03T13:18:03;100386.45;;;15.10;80.76
48404;BME280;34202;52.536;6.042;2022-11-03T13:23:04;100379.30;;;15.09;80.32
48404;BME280;34202;52.536;6.042;2022-11-03T13:28:05;100379.09;;;15.10;80.21
48404;BME280;34202;52.536;6.042;2022-11-03T13:33:05;100368.48;;;15.15;80.35
48404;BME280;34202;52.536;6.042;2022-11-03T13:38:06;100358.23;;;15.20;80.05
48404;BME280;34202;52.536;6.042;2022-11-03T13:43:06;100341.60;;;15.18;79.61
48404;BME280;34202;52.536;6.042;2022-11-03T13:48:06;100333.23;;;15.16;79.21
48404;BME280;34202;52.536;6.042;2022-11-03T13:53:07;100320.09;;;15.16;79.16
48404;BME280;34202;52.536;6.042;2022-11-03T13:58:07;100306.04;;;15.18;79.09
48404;BME280;34202;52.536;6.042;2022-11-03T14:03:07;100285.79;;;15.22;78.89
48404;BME280;34202;52.536;6.042;2022-11-03T14:08:08;100278.85;;;15.27;78.87
48404;BME280;34202;52.536;6.042;2022-11-03T14:13:08;100271.24;;;15.30;78.71
48404;BME280;34202;52.536;6.042;2022-11-03T14:18:08;100260.89;;;15.30;78.35
48404;BME280;34202;52.536;6.042;2022-11-03T14:23:09;100261.28;;;15.28;77.96
48404;BME280;34202;52.536;6.042;2022-11-03T14:28:09;100254.14;;;15.27;77.79
48404;BME280;34202;52.536;6.042;2022-11-03T14:33:09;100249.61;;;15.25;77.70
48404;BME280;34202;52.536;6.042;2022-11-03T14:38:10;100244.56;;;15.23;77.61
48404;BME280;34202;52.536;6.042;2022-11-03T14:43:10;100220.70;;;15.17;77.28
48404;BME280;34202;52.536;6.042;2022-11-03T14:48:11;100212.20;;;15.12;77.20
48404;BME280;34202;52.536;6.042;2022-11-03T14:53:11;100212.87;;;15.06;77.22
48404;BME280;34202;52.536;6.042;2022-11-03T14:58:11;100204.41;;;15.00;77.23
48404;BME280;34202;52.536;6.042;2022-11-03T15:03:12;100192.98;;;14.94;77.18
48404;BME280;34202;52.536;6.042;2022-11-03T15:08:14;100175.04;;;14.88;77.31
48404;BME280;34202;52.536;6.042;2022-11-03T15:13:15;100178.16;;;14.82;77.30
48404;BME280;34202;52.536;6.042;2022-11-03T15:18:15;100177.97;;;14.75;77.22
48404;BME280;34202;52.536;6.042;2022-11-03T15:23:17;100176.20;;;14.67;77.23
48404;BME280;34202;52.536;6.042;2022-11-03T15:28:17;100168.80;;;14.61;77.34
48404;BME280;34202;52.536;6.042;2022-11-03T15:33:20;100171.34;;;14.55;77.41
48404;BME280;34202;52.536;6.042;2022-11-03T15:38:20;100169.34;;;14.49;77.49
48404;BME280;34202;52.536;6.042;2022-11-03T15:43:20;100155.27;;;14.44;77.56
48404;BME280;34202;52.536;6.042;2022-11-03T15:48:21;100148.73;;;14.39;77.61
48404;BME280;34202;52.536;6.042;2022-11-03T15:53:21;100144.82;;;14.33;77.64
48404;BME280;34202;52.536;6.042;2022-11-03T15:58:21;100139.48;;;14.28;77.84
48404;BME280;34202;52.536;6.042;2022-11-03T16:03:22;100130.99;;;14.23;77.90
48404;BME280;34202;52.536;6.042;2022-11-03T16:08:22;100126.02;;;14.19;77.98
48404;BME280;34202;52.536;6.042;2022-11-03T16:13:22;100118.04;;;14.16;78.29
48404;BME280;34202;52.536;6.042;2022-11-03T16:18:23;100110.25;;;14.11;78.78
48404;BME280;34202;52.536;6.042;2022-11-03T16:23:23;100092.02;;;14.03;79.31
48404;BME280;34202;52.536;6.042;2022-11-03T16:28:23;100077.31;;;13.95;79.82
48404;BME280;34202;52.536;6.042;2022-11-03T16:33:24;100067.52;;;13.86;80.41
48404;BME280;34202;52.536;6.042;2022-11-03T16:38:25;100074.48;;;13.78;80.83
48404;BME280;34202;52.536;6.042;2022-11-03T16:43:25;100069.38;;;13.70;81.39
48404;BME280;34202;52.536;6.042;2022-11-03T16:48:26;100071.27;;;13.63;81.91
48404;BME280;34202;52.536;6.042;2022-11-03T16:53:26;100072.83;;;13.54;82.38
48404;BME280;34202;52.536;6.042;2022-11-03T16:58:26;100059.70;;;13.45;82.89
48404;BME280;34202;52.536;6.042;2022-11-03T17:03:27;100053.39;;;13.36;83.47
48404;BME280;34202;52.536;6.042;2022-11-03T17:08:27;100052.96;;;13.28;84.11
48404;BME280;34202;52.536;6.042;2022-11-03T17:13:28;100056.39;;;13.21;84.54
48404;BME280;34202;52.536;6.042;2022-11-03T17:18:28;100058.82;;;13.13;85.09
48404;BME280;34202;52.536;6.042;2022-11-03T17:23:29;100055.93;;;13.07;85.65
48404;BME280;34202;52.536;6.042;2022-11-03T17:28:29;100052.91;;;12.99;86.15
48404;BME280;34202;52.536;6.042;2022-11-03T17:33:29;100048.83;;;12.91;86.64
48404;BME280;34202;52.536;6.042;2022-11-03T17:38:31;100046.82;;;12.86;87.18
48404;BME280;34202;52.536;6.042;2022-11-03T17:43:32;100045.32;;;12.82;87.66
48404;BME280;34202;52.536;6.042;2022-11-03T17:48:33;100038.40;;;12.77;88.19
48404;BME280;34202;52.536;6.042;2022-11-03T17:53:33;100036.21;;;12.71;88.47
48404;BME280;34202;52.536;6.042;2022-11-03T17:58:36;100037.72;;;12.65;88.89
48404;BME280;34202;52.536;6.042;2022-11-03T18:03:37;100025.75;;;12.59;89.37
48404;BME280;34202;52.536;6.042;2022-11-03T18:08:37;100017.25;;;12.54;89.71
48404;BME280;34202;52.536;6.042;2022-11-03T18:13:37;100007.20;;;12.50;90.15
48404;BME280;34202;52.536;6.042;2022-11-03T18:18:42;100000.48;;;12.45;90.40
48404;BME280;34202;52.536;6.042;2022-11-03T18:23:44;99995.16;;;12.38;90.74
48404;BME280;34202;52.536;6.042;2022-11-03T18:28:46;99990.02;;;12.33;91.12
48404;BME280;34202;52.536;6.042;2022-11-03T18:33:47;99982.23;;;12.28;91.45
48404;BME280;34202;52.536;6.042;2022-11-03T18:38:47;99975.30;;;12.23;91.83
48404;BME280;34202;52.536;6.042;2022-11-03T18:43:50;99971.18;;;12.19;92.12
48404;BME280;34202;52.536;6.042;2022-11-03T18:48:50;99965.27;;;12.16;92.59
48404;BME280;34202;52.536;6.042;2022-11-03T18:53:51;99963.75;;;12.13;92.88
48404;BME280;34202;52.536;6.042;2022-11-03T18:58:53;99955.08;;;12.11;93.15
48404;BME280;34202;52.536;6.042;2022-11-03T19:03:54;99958.94;;;12.08;93.47
48404;BME280;34202;52.536;6.042;2022-11-03T19:08:58;99954.61;;;12.06;93.82
48404;BME280;34202;52.536;6.042;2022-11-03T19:13:59;99951.83;;;12.05;94.00
48404;BME280;34202;52.536;6.042;2022-11-03T19:19:00;99941.23;;;12.03;94.27
48404;BME280;34202;52.536;6.042;2022-11-03T19:24:01;99934.09;;;12.02;94.53
48404;BME280;34202;52.536;6.042;2022-11-03T19:29:08;99928.51;;;12.01;94.71
48404;BME280;34202;52.536;6.042;2022-11-03T19:34:17;99920.50;;;12.00;95.01
48404;BME280;34202;52.536;6.042;2022-11-03T19:39:39;99920.69;;;11.99;95.09
48404;BME280;34202;52.536;6.042;2022-11-03T19:44:40;99907.96;;;11.99;95.32
48404;BME280;34202;52.536;6.042;2022-11-03T19:49:40;99905.70;;;11.98;95.51
48404;BME280;34202;52.536;6.042;2022-11-03T19:54:43;99903.48;;;11.96;95.70
48404;BME280;34202;52.536;6.042;2022-11-03T19:59:45;99898.96;;;11.95;95.96
48404;BME280;34202;52.536;6.042;2022-11-03T20:04:45;99892.88;;;11.93;96.16
48404;BME280;34202;52.536;6.042;2022-11-03T20:09:46;99880.70;;;11.92;96.28
48404;BME280;34202;52.536;6.042;2022-11-03T20:14:46;99878.42;;;11.91;96.45
48404;BME280;34202;52.536;6.042;2022-11-03T20:25:17;99879.66;;;11.91;96.88
48404;BME280;34202;52.536;6.042;2022-11-03T20:30:20;99873.91;;;11.91;96.97
48404;BME280;34202;52.536;6.042;2022-11-03T20:35:23;99861.52;;;11.91;97.11
48404;BME280;34202;52.536;6.042;2022-11-03T20:40:26;99857.66;;;11.92;97.26
48404;BME280;34202;52.536;6.042;2022-11-03T20:45:29;99858.02;;;11.92;97.53
48404;BME280;34202;52.536;6.042;2022-11-03T20:50:30;99867.10;;;11.91;97.61
48404;BME280;34202;52.536;6.042;2022-11-03T20:55:31;99871.80;;;11.92;97.72
48404;BME280;34202;52.536;6.042;2022-11-03T21:00:37;99846.85;;;11.92;97.77
48404;BME280;34202;52.536;6.042;2022-11-03T21:05:38;99836.19;;;11.95;97.96
48404;BME280;34202;52.536;6.042;2022-11-03T21:10:39;99828.86;;;11.95;98.05
48404;BME280;34202;52.536;6.042;2022-11-03T21:15:40;99829.02;;;11.96;98.17
48404;BME280;34202;52.536;6.042;2022-11-03T21:21:00;99820.13;;;11.95;98.32
48404;BME280;34202;52.536;6.042;2022-11-03T21:26:01;99823.28;;;11.95;98.40
48404;BME280;34202;52.536;6.042;2022-11-03T21:31:01;99825.90;;;11.95;98.44
48404;BME280;34202;52.536;6.042;2022-11-03T21:36:01;99822.44;;;11.94;98.55
48404;BME280;34202;52.536;6.042;2022-11-03T21:41:06;99816.34;;;11.93;98.69
48404;BME280;34202;52.536;6.042;2022-11-03T21:46:25;99811.98;;;11.92;98.76
48404;BME280;34202;52.536;6.042;2022-11-03T21:51:26;99814.60;;;11.92;98.95
48404;BME280;34202;52.536;6.042;2022-11-03T21:56:26;99821.95;;;11.91;99.02
48404;BME280;34202;52.536;6.042;2022-11-03T22:01:26;99840.62;;;11.89;99.21
48404;BME280;34202;52.536;6.042;2022-11-03T22:06:27;99855.43;;;11.88;99.34
48404;BME280;34202;52.536;6.042;2022-11-03T22:11:27;99863.12;;;11.87;99.45
48404;BME280;34202;52.536;6.042;2022-11-03T22:16:28;99843.42;;;11.87;99.49
48404;BME280;34202;52.536;6.042;2022-11-03T22:21:38;99830.52;;;11.87;99.46
48404;BME280;34202;52.536;6.042;2022-11-03T22:26:58;99835.41;;;11.86;99.57
48404;BME280;34202;52.536;6.042;2022-11-03T22:31:59;99829.48;;;11.86;99.64
48404;BME280;34202;52.536;6.042;2022-11-03T22:36:59;99831.43;;;11.85;99.71
48404;BME280;34202;52.536;6.042;2022-11-03T22:42:00;99831.27;;;11.82;99.83
48404;BME280;34202;52.536;6.042;2022-11-03T22:47:19;99838.64;;;11.79;99.93
48404;BME280;34202;52.536;6.042;2022-11-03T22:52:19;99839.04;;;11.76;99.96
48404;BME280;34202;52.536;6.042;2022-11-03T22:57:20;99847.27;;;11.74;99.94
48404;BME280;34202;52.536;6.042;2022-11-03T23:02:20;99853.57;;;11.72;99.99
48404;BME280;34202;52.536;6.042;2022-11-03T23:07:20;99873.84;;;11.68;100.00
48404;BME280;34202;52.536;6.042;2022-11-03T23:12:21;99880.18;;;11.63;99.94
48404;BME280;34202;52.536;6.042;2022-11-03T23:17:21;99899.44;;;11.56;99.90
48404;BME280;34202;52.536;6.042;2022-11-03T23:22:42;99914.34;;;11.48;99.98
48404;BME280;34202;52.536;6.042;2022-11-03T23:27:42;99922.09;;;11.41;100.00
48404;BME280;34202;52.536;6.042;2022-11-03T23:32:43;99931.06;;;11.33;99.98
48404;BME280;34202;52.536;6.042;2022-11-03T23:37:43;99917.73;;;11.26;99.98
48404;BME280;34202;52.536;6.042;2022-11-03T23:42:43;99901.92;;;11.21;99.98
48404;BME280;34202;52.536;6.042;2022-11-03T23:47:44;99906.86;;;11.16;99.99
48404;BME280;34202;52.536;6.042;2022-11-03T23:53:03;99918.23;;;11.12;99.59
48404;BME280;34202;52.536;6.042;2022-11-03T23:58:03;99925.42;;;11.06;99.22
